Time;durP1;ratioP1;P1;durP2;ratioP2;P2;SDS_P1;SDS_P2;PMS_P1;PMS_P2;Temp;Humidity;BMP_temperature;BMP_pressure;BME280_temperature;BME280_humidity;BME280_pressure;Samples;Min_cycle;Max_cycle;Signal;HPM_P1;HPM_P2
2021/09/28 00:01:28;;;;;;;21.23;8.88;;;12.70;93.50;;;;;;5055170;28;20400;-37
2021/09/28 00:03:54;;;;;;;14.68;8.05;;;12.60;93.50;;;;;;5055155;28;20436;-38
2021/09/28 00:06:19;;;;;;;19.70;9.30;;;12.70;93.40;;;;;;5053078;28;20032;-37
2021/09/28 00:08:45;;;;;;;18.27;7.70;;;12.70;93.10;;;;;;5055150;28;20021;-37
2021/09/28 00:11:11;;;;;;;19.48;7.25;;;12.70;92.70;;;;;;5054769;28;20017;-38
2021/09/28 00:13:38;;;;;;;16.40;7.72;;;12.50;92.70;;;;;;5054681;28;20029;-39
2021/09/28 00:16:04;;;;;;;16.30;6.45;;;12.60;92.60;;;;;;5054818;28;20109;-36
2021/09/28 00:18:30;;;;;;;22.70;7.60;;;12.50;92.80;;;;;;5054773;28;20052;-38
2021/09/28 00:20:55;;;;;;;16.20;8.27;;;12.50;92.50;;;;;;5054474;28;20025;-39
2021/09/28 00:23:21;;;;;;;14.23;6.82;;;12.50;92.40;;;;;;5054685;28;20504;-36
2021/09/28 00:25:49;;;;;;;19.42;7.70;;;12.50;92.40;;;;;;5054381;28;20060;-36
2021/09/28 00:28:16;;;;;;;23.85;7.45;;;12.50;92.10;;;;;;5054299;28;20043;-38
2021/09/28 00:30:43;;;;;;;13.88;6.43;;;12.50;92.00;;;;;;5053078;28;20048;-38
2021/09/28 00:33:09;;;;;;;17.88;7.38;;;12.40;92.20;;;;;;5054660;28;20135;-36
2021/09/28 00:35:36;;;;;;;13.20;6.78;;;12.40;91.90;;;;;;5054367;28;20035;-36
2021/09/28 00:38:02;;;;;;;17.05;6.22;;;12.30;92.30;;;;;;5054167;28;20052;-36
2021/09/28 00:40:27;;;;;;;17.50;6.00;;;12.30;92.70;;;;;;5054321;28;20052;-36
2021/09/28 00:42:53;;;;;;;18.02;7.28;;;12.30;92.50;;;;;;5054370;28;20120;-36
2021/09/28 00:45:19;;;;;;;17.52;7.43;;;12.30;92.70;;;;;;5054794;28;20021;-36
2021/09/28 00:47:44;;;;;;;15.00;6.75;;;12.20;92.70;;;;;;5054389;28;20074;-37
2021/09/28 00:50:10;;;;;;;14.70;5.80;;;12.20;92.90;;;;;;5054234;28;20031;-37
2021/09/28 00:52:36;;;;;;;17.77;6.32;;;12.30;93.10;;;;;;5052615;28;20109;-37
2021/09/28 00:55:03;;;;;;;21.42;7.03;;;12.30;93.10;;;;;;5053637;28;20037;-36
2021/09/28 00:57:28;;;;;;;14.80;7.10;;;12.20;93.20;;;;;;5053791;28;20021;-37
2021/09/28 00:59:56;;;;;;;20.42;5.45;;;12.20;93.30;;;;;;5053939;28;20078;-37
2021/09/28 01:02:22;;;;;;;18.63;6.28;;;12.30;93.30;;;;;;5053856;28;20025;-36
2021/09/28 01:04:48;;;;;;;11.23;5.18;;;12.10;93.10;;;;;;5053421;28;20088;-36
2021/09/28 01:07:13;;;;;;;9.80;5.07;;;12.00;93.10;;;;;;5053457;28;20072;-37
2021/09/28 01:09:40;;;;;;;14.98;5.18;;;12.00;93.10;;;;;;5053337;28;20025;-36
2021/09/28 01:12:08;;;;;;;16.05;5.88;;;12.10;93.10;;;;;;5053317;28;20037;-36
2021/09/28 01:14:33;;;;;;;13.45;5.40;;;12.00;93.20;;;;;;5053209;28;20029;-36
2021/09/28 01:16:59;;;;;;;14.50;6.15;;;12.00;93.10;;;;;;5052437;28;20029;-37
2021/09/28 01:19:25;;;;;;;14.43;5.70;;;12.10;92.90;;;;;;5053116;28;20033;-37
2021/09/28 01:21:51;;;;;;;14.10;7.03;;;12.20;92.50;;;;;;5053380;28;20481;-36
2021/09/28 01:24:17;;;;;;;19.20;7.57;;;12.10;92.10;;;;;;5053121;28;20026;-36
2021/09/28 01:26:42;;;;;;;17.55;6.80;;;12.10;92.20;;;;;;5053101;28;20400;-36
2021/09/28 01:29:08;;;;;;;22.48;6.78;;;12.10;92.20;;;;;;5053066;28;20029;-36
2021/09/28 01:31:38;;;;;;;19.25;6.57;;;12.00;92.50;;;;;;5052963;28;20052;-36
2021/09/28 01:34:06;;;;;;;17.80;6.30;;;12.00;92.40;;;;;;5053222;28;20033;-37
2021/09/28 01:36:31;;;;;;;16.73;6.93;;;12.00;92.60;;;;;;5053272;28;20287;-36
2021/09/28 01:38:57;;;;;;;22.42;7.53;;;12.00;92.50;;;;;;5054132;28;20100;-37
2021/09/28 01:41:23;;;;;;;20.52;6.40;;;11.90;92.70;;;;;;5053517;28;20021;-36
2021/09/28 01:43:49;;;;;;;15.90;6.22;;;11.90;92.80;;;;;;5053312;28;20021;-36
2021/09/28 01:46:14;;;;;;;14.98;6.80;;;12.00;92.50;;;;;;5052938;28;20025;-36
2021/09/28 01:48:48;;;;;;;25.42;6.45;;;11.90;92.60;;;;;;5053275;28;20049;-36
2021/09/28 01:51:14;;;;;;;14.20;6.45;;;11.90;92.60;;;;;;5053726;28;20027;-36
2021/09/28 01:53:40;;;;;;;24.08;7.88;;;11.90;92.60;;;;;;5053014;28;20544;-36
2021/09/28 01:56:05;;;;;;;21.38;6.13;;;11.80;92.50;;;;;;5052686;28;20377;-37
2021/09/28 01:58:34;;;;;;;13.75;5.93;;;11.80;92.90;;;;;;5052931;28;20029;-37
2021/09/28 02:01:00;;;;;;;18.75;6.07;;;11.80;92.80;;;;;;5052752;28;20092;-37
2021/09/28 02:03:26;;;;;;;14.15;5.47;;;11.80;92.80;;;;;;5052781;28;20029;-37
2021/09/28 02:05:52;;;;;;;18.90;6.28;;;11.80;92.90;;;;;;5052696;28;20102;-36
2021/09/28 02:08:17;;;;;;;17.98;6.85;;;11.80;92.90;;;;;;5052948;28;20488;-36
2021/09/28 02:10:43;;;;;;;27.60;6.95;;;11.80;93.00;;;;;;5052783;28;20041;-37
2021/09/28 02:13:08;;;;;;;17.25;5.95;;;11.80;92.90;;;;;;5052709;28;20489;-37
2021/09/28 02:15:34;;;;;;;12.65;5.63;;;11.80;92.90;;;;;;5052548;28;20036;-37
2021/09/28 02:18:00;;;;;;;15.43;5.47;;;11.80;92.80;;;;;;5052717;28;20021;-37
2021/09/28 02:20:26;;;;;;;23.90;6.78;;;11.80;92.60;;;;;;5052591;28;20017;-37
2021/09/28 02:22:52;;;;;;;15.00;6.88;;;11.80;92.50;;;;;;5051333;28;20100;-37
2021/09/28 02:25:19;;;;;;;16.25;6.72;;;11.80;92.50;;;;;;5052522;28;20132;-37
2021/09/28 02:27:46;;;;;;;21.77;6.65;;;11.70;92.70;;;;;;5051653;28;20028;-37
2021/09/28 02:30:12;;;;;;;17.38;6.28;;;11.80;92.70;;;;;;5055660;28;20021;-37
2021/09/28 02:32:38;;;;;;;16.20;5.47;;;11.80;92.60;;;;;;5057034;28;20460;-36
2021/09/28 02:35:05;;;;;;;20.30;5.57;;;11.80;92.60;;;;;;5056312;28;20028;-37
2021/09/28 02:37:31;;;;;;;19.17;6.20;;;11.80;92.50;;;;;;5056603;28;20033;-37
2021/09/28 02:39:56;;;;;;;21.27;7.50;;;11.70;92.60;;;;;;5055355;28;20029;-37
2021/09/28 02:42:23;;;;;;;19.00;5.75;;;11.70;92.50;;;;;;5056619;28;20017;-42
2021/09/28 02:44:50;;;;;;;16.23;5.32;;;11.70;92.60;;;;;;5055140;28;20025;-37
2021/09/28 02:47:16;;;;;;;21.08;6.45;;;11.70;92.60;;;;;;5056233;28;20029;-37
2021/09/28 02:49:41;;;;;;;24.92;6.50;;;11.80;92.50;;;;;;5054836;28;20036;-36
2021/09/28 02:52:07;;;;;;;16.08;5.13;;;11.70;92.20;;;;;;5056324;28;20036;-36
2021/09/28 02:54:33;;;;;;;14.88;6.07;;;11.80;92.20;;;;;;5054771;28;20041;-37
2021/09/28 02:56:59;;;;;;;15.77;4.53;;;11.70;92.40;;;;;;5056506;28;20154;-36
2021/09/28 02:59:24;;;;;;;19.98;5.28;;;11.70;92.50;;;;;;5056089;28;20508;-37
2021/09/28 03:01:50;;;;;;;12.40;4.93;;;11.70;92.70;;;;;;5056035;28;20100;-37
2021/09/28 03:04:16;;;;;;;11.35;5.78;;;11.60;92.70;;;;;;5056071;28;20163;-36
2021/09/28 03:06:41;;;;;;;18.23;5.40;;;11.70;92.30;;;;;;5056150;28;20036;-37
2021/09/28 03:12:29;;;;;;;14.27;4.90;;;11.80;91.80;;;;;;5056200;28;20089;-37
2021/09/28 03:14:55;;;;;;;18.70;6.05;;;11.70;91.90;;;;;;5056086;28;20025;-43
2021/09/28 03:17:20;;;;;;;13.10;5.55;;;11.80;92.00;;;;;;5055950;28;20178;-36
2021/09/28 03:19:46;;;;;;;14.65;5.55;;;11.70;92.10;;;;;;5055944;28;20040;-36
2021/09/28 03:22:11;;;;;;;15.40;5.03;;;11.70;92.30;;;;;;5055714;28;20033;-36
2021/09/28 03:24:37;;;;;;;20.77;4.68;;;11.70;92.10;;;;;;5055735;28;20029;-37
2021/09/28 03:27:03;;;;;;;19.27;5.00;;;11.70;92.30;;;;;;5055602;28;20025;-36
2021/09/28 03:29:29;;;;;;;20.15;4.40;;;11.80;92.20;;;;;;5055513;28;20029;-36
2021/09/28 03:31:54;;;;;;;9.85;3.92;;;11.80;92.00;;;;;;5055498;28;20036;-36
2021/09/28 03:34:20;;;;;;;10.77;5.03;;;11.70;91.80;;;;;;5055731;28;20542;-36
2021/09/28 03:36:45;;;;;;;16.98;4.78;;;11.70;91.80;;;;;;5055277;28;20025;-36
2021/09/28 03:39:11;;;;;;;16.77;4.05;;;11.70;91.90;;;;;;5055330;28;20075;-36
2021/09/28 03:41:37;;;;;;;16.13;4.45;;;11.70;92.10;;;;;;5054556;28;20497;-36
2021/09/28 03:44:03;;;;;;;25.92;3.80;;;11.70;92.00;;;;;;5055290;28;20103;-37
2021/09/28 03:46:29;;;;;;;16.55;5.00;;;11.70;92.20;;;;;;5055465;28;20029;-36
2021/09/28 03:48:54;;;;;;;14.35;3.95;;;11.70;92.00;;;;;;5055406;28;20021;-36
2021/09/28 03:51:20;;;;;;;17.30;4.97;;;11.80;92.30;;;;;;5053784;28;20084;-36
2021/09/28 03:53:45;;;;;;;13.40;4.18;;;11.80;92.00;;;;;;5055077;28;20059;-36
2021/09/28 03:56:11;;;;;;;12.13;4.38;;;11.80;91.60;;;;;;5054740;28;20049;-36
2021/09/28 03:58:37;;;;;;;14.52;4.80;;;11.70;91.80;;;;;;5055201;28;20111;-36
2021/09/28 04:01:02;;;;;;;11.57;4.45;;;11.70;91.70;;;;;;5054975;28;20139;-36
2021/09/28 04:03:28;;;;;;;16.33;4.95;;;11.60;91.80;;;;;;5055031;28;20029;-36
2021/09/28 04:05:54;;;;;;;13.98;4.35;;;11.70;91.90;;;;;;5054967;28;20056;-37
2021/09/28 04:08:19;;;;;;;18.42;3.97;;;11.70;91.90;;;;;;5054801;28;20546;-38
2021/09/28 04:10:45;;;;;;;20.52;4.78;;;11.60;91.60;;;;;;5053304;28;20060;-38
2021/09/28 04:13:11;;;;;;;14.63;4.57;;;11.60;91.90;;;;;;5054705;28;20025;-38
2021/09/28 04:15:41;;;;;;;14.77;3.97;;;11.60;91.90;;;;;;5054639;28;20059;-38
2021/09/28 04:18:12;;;;;;;11.32;6.18;;;11.60;92.00;;;;;;5054893;28;20052;-38
2021/09/28 04:20:44;;;;;;;8.80;4.07;;;11.60;92.20;;;;;;5054700;28;20040;-38
2021/09/28 04:23:12;;;;;;;9.90;3.78;;;11.70;91.90;;;;;;5054244;28;20108;-38
2021/09/28 04:25:38;;;;;;;8.52;4.03;;;11.60;91.70;;;;;;5054250;28;20017;-38
2021/09/28 04:28:04;;;;;;;16.17;3.88;;;11.50;91.90;;;;;;5054119;28;20020;-38
2021/09/28 04:30:30;;;;;;;18.35;5.00;;;11.50;92.10;;;;;;5053891;28;20032;-38
2021/09/28 04:32:56;;;;;;;14.82;4.05;;;11.60;91.90;;;;;;5053778;28;20051;-37
2021/09/28 04:35:21;;;;;;;24.55;5.47;;;11.60;92.10;;;;;;5053994;28;20033;-36
2021/09/28 04:37:48;;;;;;;18.90;4.90;;;11.60;92.10;;;;;;5054195;28;20398;-36
2021/09/28 04:40:14;;;;;;;13.20;5.20;;;11.50;92.10;;;;;;5053801;28;20322;-46
2021/09/28 04:42:40;;;;;;;13.90;4.55;;;11.50;92.10;;;;;;5054602;28;20175;-37
2021/09/28 04:45:07;;;;;;;15.18;4.43;;;11.60;91.60;;;;;;5054180;28;20488;-37
2021/09/28 04:47:33;;;;;;;13.38;4.47;;;11.50;91.70;;;;;;5054001;28;20119;-37
2021/09/28 04:49:59;;;;;;;14.25;5.32;;;11.50;91.70;;;;;;5053625;28;20550;-37
2021/09/28 04:52:25;;;;;;;15.32;5.07;;;11.40;92.10;;;;;;5052307;28;20025;-37
2021/09/28 04:54:50;;;;;;;19.23;5.72;;;11.40;92.10;;;;;;5053671;28;20052;-38
2021/09/28 04:57:16;;;;;;;20.70;5.40;;;11.50;92.00;;;;;;5053804;28;20071;-36
2021/09/28 04:59:42;;;;;;;17.73;5.05;;;11.40;91.90;;;;;;5053565;28;20096;-36
2021/09/28 05:02:07;;;;;;;25.13;6.20;;;11.40;91.90;;;;;;5053442;28;20105;-36
2021/09/28 05:04:33;;;;;;;15.65;5.72;;;11.40;91.90;;;;;;5053396;28;20124;-37
2021/09/28 05:06:59;;;;;;;22.80;4.60;;;11.40;91.90;;;;;;5051889;28;20025;-37
2021/09/28 05:09:24;;;;;;;16.48;3.97;;;11.30;92.00;;;;;;5053457;28;20037;-37
2021/09/28 05:11:50;;;;;;;27.92;6.03;;;11.30;92.10;;;;;;5053350;28;20037;-36
2021/09/28 05:14:16;;;;;;;20.92;5.95;;;11.30;92.00;;;;;;5053298;28;20036;-36
2021/09/28 05:16:41;;;;;;;13.68;3.63;;;11.30;92.10;;;;;;5053276;28;20051;-37
2021/09/28 05:19:07;;;;;;;16.13;5.05;;;11.30;92.30;;;;;;5052809;28;20460;-36
2021/09/28 05:21:33;;;;;;;22.23;5.47;;;11.30;92.20;;;;;;5053051;28;20028;-37
2021/09/28 05:23:59;;;;;;;10.48;4.07;;;11.30;92.30;;;;;;5052879;28;20029;-37
2021/09/28 05:26:24;;;;;;;17.92;4.18;;;11.30;92.10;;;;;;5052627;28;20122;-37
2021/09/28 05:28:50;;;;;;;14.68;4.07;;;11.30;92.20;;;;;;5053066;28;20083;-37
2021/09/28 05:31:16;;;;;;;17.38;5.00;;;11.40;91.60;;;;;;5052392;28;20447;-37
2021/09/28 05:33:42;;;;;;;13.45;4.32;;;11.30;91.40;;;;;;5053257;28;20064;-37
2021/09/28 05:36:08;;;;;;;11.27;4.13;;;11.30;91.70;;;;;;5053028;28;20057;-37
2021/09/28 05:38:34;;;;;;;18.65;7.13;;;11.30;91.90;;;;;;5051524;28;20021;-37
2021/09/28 05:41:04;;;;;;;13.02;5.22;;;11.30;91.90;;;;;;5052725;28;20531;-37
2021/09/28 05:43:30;;;;;;;13.90;4.30;;;11.30;91.80;;;;;;5053038;28;20093;-37
2021/09/28 05:45:56;;;;;;;23.05;6.18;;;11.30;91.60;;;;;;5053252;28;20029;-38
2021/09/28 05:48:21;;;;;;;19.98;5.68;;;11.40;91.60;;;;;;5053276;28;20476;-37
2021/09/28 05:50:47;;;;;;;17.35;4.43;;;11.40;91.20;;;;;;5052991;28;20029;-37
2021/09/28 05:53:13;;;;;;;17.80;6.03;;;11.40;91.10;;;;;;5052115;28;20025;-37
2021/09/28 05:55:39;;;;;;;16.90;4.55;;;11.40;91.10;;;;;;5052500;28;20088;-36
2021/09/28 05:58:04;;;;;;;21.33;4.32;;;11.40;90.90;;;;;;5052551;28;20057;-37
2021/09/28 06:00:30;;;;;;;16.73;5.07;;;11.30;91.00;;;;;;5052711;28;20033;-36
2021/09/28 06:02:56;;;;;;;23.00;5.50;;;11.50;90.90;;;;;;5052159;28;20025;-38
2021/09/28 06:05:21;;;;;;;17.70;5.38;;;11.50;90.50;;;;;;5051285;28;20033;-37
2021/09/28 06:07:48;;;;;;;12.70;4.55;;;11.40;90.60;;;;;;5052516;28;20036;-37
2021/09/28 06:10:14;;;;;;;18.23;5.25;;;11.50;90.70;;;;;;5053073;28;20464;-37
2021/09/28 06:12:40;;;;;;;13.45;4.63;;;11.50;90.60;;;;;;5052787;28;20044;-37
2021/09/28 06:15:07;;;;;;;16.70;4.25;;;11.50;90.60;;;;;;5052256;28;20056;-37
2021/09/28 06:17:32;;;;;;;21.70;4.43;;;11.60;90.40;;;;;;5050995;28;20033;-38
2021/09/28 06:19:58;;;;;;;15.02;4.53;;;11.70;90.40;;;;;;5050968;28;20028;-38
2021/09/28 06:22:25;;;;;;;13.75;4.05;;;11.70;90.20;;;;;;5052126;28;20057;-38
2021/09/28 06:24:55;;;;;;;13.57;4.68;;;11.70;90.00;;;;;;5052704;28;20025;-37
2021/09/28 06:27:22;;;;;;;13.73;4.05;;;11.70;89.90;;;;;;5052597;28;20477;-38
2021/09/28 06:29:49;;;;;;;14.88;3.92;;;11.70;89.90;;;;;;5050949;28;20408;-38
2021/09/28 06:32:16;;;;;;;16.45;5.03;;;11.80;90.10;;;;;;5052309;28;20079;-38
2021/09/28 06:34:42;;;;;;;19.20;3.30;;;11.80;89.80;;;;;;5052186;28;20036;-38
2021/09/28 06:37:08;;;;;;;16.60;4.97;;;11.80;90.00;;;;;;5052361;28;20029;-38
2021/09/28 06:39:33;;;;;;;12.68;4.00;;;11.80;90.30;;;;;;5052162;28;20028;-36
2021/09/28 06:41:59;;;;;;;16.20;5.05;;;11.80;90.00;;;;;;5052155;28;20030;-37
2021/09/28 06:44:25;;;;;;;22.70;5.97;;;11.90;90.00;;;;;;5052110;28;20063;-37
2021/09/28 06:46:50;;;;;;;17.52;4.35;;;12.00;90.10;;;;;;5050874;28;20040;-37
2021/09/28 06:49:16;;;;;;;27.77;5.95;;;12.20;89.30;;;;;;5052396;28;20045;-37
2021/09/28 06:51:42;;;;;;;13.07;4.60;;;12.30;89.00;;;;;;5050840;28;20025;-39
2021/09/28 06:54:07;;;;;;;14.35;4.60;;;12.20;89.30;;;;;;5051894;28;20036;-36
2021/09/28 06:56:33;;;;;;;11.93;4.22;;;12.20;89.40;;;;;;5052329;28;20057;-36
2021/09/28 06:58:59;;;;;;;10.88;3.33;;;12.30;89.10;;;;;;5050555;28;20450;-39
2021/09/28 07:01:25;;;;;;;20.27;5.97;;;12.30;88.70;;;;;;5051912;28;20021;-37
2021/09/28 07:03:50;;;;;;;15.57;3.78;;;12.30;88.70;;;;;;5052132;28;20036;-37
2021/09/28 07:06:16;;;;;;;16.98;3.67;;;12.40;88.40;;;;;;5051969;28;20513;-38
2021/09/28 07:08:42;;;;;;;12.30;3.63;;;12.50;88.20;;;;;;5051066;28;20024;-37
2021/09/28 07:11:08;;;;;;;15.82;4.63;;;12.50;88.00;;;;;;5052081;28;20029;-37
2021/09/28 07:13:36;;;;;;;19.15;3.50;;;12.50;88.20;;;;;;5051796;28;20044;-37
2021/09/28 07:16:01;;;;;;;15.30;4.03;;;12.60;87.80;;;;;;5053575;28;20052;-37
2021/09/28 07:18:27;;;;;;;16.70;4.05;;;12.80;87.80;;;;;;5055246;28;20476;-37
2021/09/28 07:20:53;;;;;;;33.30;5.75;;;12.80;87.50;;;;;;5055507;28;20318;-37
2021/09/28 07:23:18;;;;;;;13.23;3.58;;;12.90;86.90;;;;;;5055590;28;20025;-37
2021/09/28 07:25:44;;;;;;;7.47;3.53;;;12.80;86.80;;;;;;5055828;28;20452;-38
2021/09/28 07:28:10;;;;;;;15.27;3.80;;;13.00;86.30;;;;;;5055037;28;20048;-38
2021/09/28 07:30:35;;;;;;;16.10;3.53;;;13.20;86.20;;;;;;5054632;28;20027;-36
2021/09/28 07:33:01;;;;;;;16.08;5.47;;;13.50;85.90;;;;;;5054785;28;20446;-36
2021/09/28 07:35:28;;;;;;;12.02;3.33;;;13.80;83.90;;;;;;5055114;28;20046;-38
2021/09/28 07:37:54;;;;;;;11.73;3.97;;;14.00;83.70;;;;;;5055019;28;20033;-37
2021/09/28 07:40:20;;;;;;;16.80;4.25;;;14.10;83.70;;;;;;5054718;28;20025;-42
2021/09/28 07:42:46;;;;;;;16.58;3.85;;;14.20;83.10;;;;;;5054712;28;20027;-37
2021/09/28 07:45:13;;;;;;;14.20;3.63;;;14.30;82.20;;;;;;5054306;28;20044;-37
2021/09/28 07:47:39;;;;;;;12.05;4.15;;;14.30;82.50;;;;;;5054477;28;20025;-37
2021/09/28 07:50:05;;;;;;;7.45;3.00;;;14.40;82.40;;;;;;5054511;28;20100;-37
2021/09/28 07:52:31;;;;;;;13.10;3.63;;;14.50;81.70;;;;;;5054557;28;20029;-37
2021/09/28 07:54:56;;;;;;;10.10;4.25;;;14.30;81.60;;;;;;5054673;28;20547;-38
2021/09/28 07:57:24;;;;;;;11.40;2.97;;;14.30;82.10;;;;;;5054652;28;20032;-39
2021/09/28 07:59:51;;;;;;;17.20;3.60;;;14.50;81.00;;;;;;5054700;28;20033;-38
2021/09/28 08:02:20;;;;;;;6.70;3.22;;;14.50;80.90;;;;;;5054136;28;20115;-38
2021/09/28 08:04:47;;;;;;;11.07;2.90;;;14.50;80.50;;;;;;5053854;28;20029;-38
2021/09/28 08:07:15;;;;;;;11.85;3.35;;;14.90;80.60;;;;;;5054542;28;20032;-38
2021/09/28 08:09:41;;;;;;;11.35;3.58;;;15.50;77.10;;;;;;5054386;28;20481;-38
2021/09/28 08:12:07;;;;;;;14.95;4.28;;;15.80;76.10;;;;;;5054684;28;20040;-38
2021/09/28 08:14:33;;;;;;;13.38;2.55;;;15.90;74.90;;;;;;5054529;28;20449;-39
2021/09/28 08:16:59;;;;;;;12.45;3.50;;;16.00;74.80;;;;;;5054054;28;20040;-37
2021/09/28 08:19:25;;;;;;;12.68;3.67;;;16.50;72.10;;;;;;5052745;28;20480;-37
2021/09/28 08:21:54;;;;;;;13.98;3.85;;;16.80;71.00;;;;;;5054228;28;20448;-37
2021/09/28 08:24:19;;;;;;;15.60;3.25;;;16.30;72.30;;;;;;5054173;28;20359;-37
2021/09/28 08:29:31;;;;;;;7.45;3.65;;;16.90;70.60;;;;;;5054247;28;20044;-37
2021/09/28 08:31:56;;;;;;;9.40;2.70;;;16.20;73.50;;;;;;5053513;28;20033;-38
2021/09/28 08:34:22;;;;;;;11.68;3.55;;;16.00;73.50;;;;;;5053483;28;20100;-38
2021/09/28 08:36:48;;;;;;;12.30;3.42;;;16.30;72.90;;;;;;5053407;28;20051;-38
2021/09/28 08:39:15;;;;;;;21.10;6.35;;;17.00;71.50;;;;;;5053708;28;20025;-38
2021/09/28 08:41:44;;;;;;;9.70;3.17;;;17.20;69.90;;;;;;5053480;28;20079;-37
2021/09/28 08:44:11;;;;;;;11.32;3.03;;;17.00;69.30;;;;;;5053095;28;20096;-37
2021/09/28 08:46:37;;;;;;;12.23;3.00;;;17.30;69.80;;;;;;5052930;28;20121;-37
2021/09/28 08:49:02;;;;;;;12.32;2.92;;;17.10;70.30;;;;;;5052882;28;20103;-36
2021/09/28 08:51:29;;;;;;;13.00;3.17;;;17.40;69.30;;;;;;5053454;28;20053;-37
2021/09/28 08:53:55;;;;;;;11.65;3.08;;;18.00;66.00;;;;;;5053137;28;20029;-37
2021/09/28 08:56:21;;;;;;;14.82;4.03;;;18.20;65.30;;;;;;5051358;28;20060;-38
2021/09/28 08:59:02;;;;;;;16.17;3.33;;;18.70;65.00;;;;;;5053319;28;20025;-38
2021/09/28 09:01:30;;;;;;;13.93;4.65;;;18.80;64.00;;;;;;5052335;28;20017;-37
2021/09/28 09:04:12;;;;;;;9.73;2.42;;;18.50;63.50;;;;;;5051056;28;20036;-38
2021/09/28 09:06:38;;;;;;;14.05;3.20;;;18.00;65.40;;;;;;5052644;28;20036;-37
2021/09/28 09:09:04;;;;;;;15.98;2.80;;;18.60;64.50;;;;;;5052351;28;20404;-37
2021/09/28 09:11:38;;;;;;;15.68;3.35;;;18.80;63.00;;;;;;5051282;28;20504;-37
2021/09/28 09:14:25;;;;;;;18.45;2.95;;;19.20;63.40;;;;;;5052323;28;20488;-37
2021/09/28 09:16:55;;;;;;;14.65;3.55;;;19.30;61.50;;;;;;5051507;28;20052;-39
2021/09/28 09:19:22;;;;;;;11.18;3.40;;;19.50;61.00;;;;;;5052132;28;20093;-37
2021/09/28 09:21:55;;;;;;;16.65;4.05;;;19.20;61.90;;;;;;5052282;28;20131;-38
2021/09/28 09:24:43;;;;;;;17.15;3.70;;;19.10;61.70;;;;;;5052737;28;20063;-38
2021/09/28 09:27:29;;;;;;;12.88;4.50;;;19.40;60.70;;;;;;5052030;28;20024;-38
2021/09/28 09:30:19;;;;;;;17.52;3.67;;;20.10;58.70;;;;;;5051808;28;20029;-37
2021/09/28 09:32:55;;;;;;;13.97;3.50;;;20.10;58.30;;;;;;5052099;28;20467;-37
2021/09/28 09:35:27;;;;;;;17.42;3.30;;;19.60;60.50;;;;;;5051899;28;20036;-37
2021/09/28 09:38:13;;;;;;;10.98;3.17;;;18.90;61.40;;;;;;5051022;28;20035;-36
2021/09/28 09:40:40;;;;;;;10.32;2.92;;;19.10;61.40;;;;;;5050454;28;20093;-37
2021/09/28 09:43:07;;;;;;;14.02;3.85;;;19.70;59.70;;;;;;5052477;28;20021;-38
2021/09/28 09:45:32;;;;;;;9.77;2.92;;;20.10;59.20;;;;;;5051850;28;20414;-38
2021/09/28 09:47:58;;;;;;;14.52;3.47;;;19.00;60.90;;;;;;5051526;28;20104;-37
2021/09/28 09:50:26;;;;;;;9.05;2.70;;;19.30;60.20;;;;;;5051618;28;20036;-38
2021/09/28 09:52:57;;;;;;;14.05;3.75;;;18.80;61.20;;;;;;5051887;28;20070;-38
2021/09/28 09:55:33;;;;;;;7.38;2.95;;;18.00;64.80;;;;;;5051336;28;20053;-41
2021/09/28 09:58:01;;;;;;;22.58;3.85;;;18.00;65.00;;;;;;5052434;28;20045;-38
2021/09/28 10:00:28;;;;;;;9.40;2.60;;;18.60;64.20;;;;;;5051554;28;20428;-37
2021/09/28 10:02:55;;;;;;;9.65;2.55;;;19.10;61.80;;;;;;5051973;28;20478;-38
2021/09/28 10:05:21;;;;;;;15.10;3.97;;;19.20;61.80;;;;;;5050259;28;20471;-38
2021/09/28 10:07:50;;;;;;;10.85;2.55;;;19.70;59.30;;;;;;5051455;28;20342;-37
2021/09/28 10:10:17;;;;;;;12.63;3.83;;;19.30;60.90;;;;;;5052194;28;20330;-38
2021/09/28 10:12:44;;;;;;;12.82;3.17;;;19.40;59.20;;;;;;5051743;28;20037;-37
2021/09/28 10:15:12;;;;;;;13.70;2.78;;;19.40;60.40;;;;;;5051704;28;20083;-37
2021/09/28 10:17:40;;;;;;;8.13;2.20;;;19.30;59.30;;;;;;5051695;28;20033;-38
2021/09/28 10:20:08;;;;;;;7.28;2.42;;;19.40;59.40;;;;;;5051965;28;20089;-37
2021/09/28 10:22:37;;;;;;;8.10;1.95;;;19.10;61.40;;;;;;5049800;28;20032;-38
2021/09/28 10:25:24;;;;;;;13.13;2.97;;;19.10;59.60;;;;;;5051574;28;20029;-37
2021/09/28 10:28:17;;;;;;;11.23;2.15;;;19.20;59.20;;;;;;5052580;28;20025;-38
2021/09/28 10:30:45;;;;;;;7.85;2.65;;;18.70;60.90;;;;;;5051717;28;20029;-38
2021/09/28 10:33:30;;;;;;;7.57;2.17;;;18.40;61.40;;;;;;5050019;28;20028;-38
2021/09/28 10:36:13;;;;;;;14.23;2.40;;;18.30;62.40;;;;;;5051335;28;20120;-47
2021/09/28 10:38:58;;;;;;;9.05;2.58;;;18.50;61.30;;;;;;5052167;28;20468;-38
2021/09/28 10:41:29;;;;;;;10.07;2.08;;;18.80;61.60;;;;;;5052535;28;20021;-38
2021/09/28 10:44:24;;;;;;;11.32;2.15;;;18.80;60.70;;;;;;5051799;28;20017;-37
2021/09/28 10:46:50;;;;;;;9.85;2.55;;;19.10;59.50;;;;;;5052234;28;20032;-38
2021/09/28 10:49:23;;;;;;;10.73;3.05;;;19.10;59.50;;;;;;5053372;28;20384;-37
2021/09/28 10:51:49;;;;;;;10.32;2.22;;;19.30;59.20;;;;;;5055700;28;20418;-38
2021/09/28 10:54:14;;;;;;;13.77;2.47;;;19.30;59.30;;;;;;5055453;28;20028;-38
2021/09/28 10:56:50;;;;;;;12.95;4.38;;;18.60;60.60;;;;;;5055721;28;20416;-38
2021/09/28 10:59:16;;;;;;;16.67;2.72;;;18.60;60.60;;;;;;5055773;28;20017;-37
2021/09/28 11:02:08;;;;;;;6.65;2.25;;;18.50;61.90;;;;;;5055729;28;20127;-38
2021/09/28 11:04:34;;;;;;;15.10;4.03;;;19.10;60.60;;;;;;5055605;28;20049;-37
2021/09/28 11:07:08;;;;;;;14.30;3.22;;;19.40;59.60;;;;;;5055616;28;20402;-38
2021/09/28 11:09:46;;;;;;;7.85;2.22;;;19.80;58.20;;;;;;5055751;28;20017;-38
2021/09/28 11:12:13;;;;;;;15.02;2.30;;;19.70;58.20;;;;;;5055844;28;20059;-37
2021/09/28 11:14:39;;;;;;;11.75;2.45;;;19.30;58.90;;;;;;5056492;28;20025;-37
2021/09/28 11:17:14;;;;;;;11.57;3.13;;;19.20;59.70;;;;;;5055465;28;20082;-37
2021/09/28 11:19:40;;;;;;;11.80;3.88;;;18.70;61.50;;;;;;5056207;28;20457;-38
2021/09/28 11:22:15;;;;;;;8.40;2.90;;;18.70;61.80;;;;;;5056647;28;20021;-38
2021/09/28 11:24:42;;;;;;;15.50;1.70;;;18.80;60.90;;;;;;5056252;28;20025;-38
2021/09/28 11:27:12;;;;;;;8.52;2.13;;;19.20;59.70;;;;;;5055589;28;20511;-38
2021/09/28 11:29:39;;;;;;;17.98;6.40;;;19.40;58.40;;;;;;5056263;28;20033;-38
2021/09/28 11:32:06;;;;;;;9.40;3.05;;;19.70;57.90;;;;;;5055699;28;20037;-38
2021/09/28 11:34:38;;;;;;;15.23;2.13;;;20.20;57.50;;;;;;5054229;28;20037;-37
2021/09/28 11:37:05;;;;;;;11.02;1.83;;;20.10;58.20;;;;;;5054685;28;20111;-37
2021/09/28 11:39:35;;;;;;;5.53;2.17;;;19.80;57.40;;;;;;5054649;28;20382;-38
2021/09/28 11:42:00;;;;;;;8.18;2.47;;;19.50;57.40;;;;;;5054964;28;20017;-37
2021/09/28 11:44:41;;;;;;;10.32;2.03;;;19.90;56.20;;;;;;5055416;28;20469;-37
2021/09/28 11:47:15;;;;;;;11.30;3.53;;;19.90;57.40;;;;;;5054993;28;20170;-38
2021/09/28 11:49:45;;;;;;;14.82;4.13;;;20.00;57.60;;;;;;5055205;28;20155;-39
2021/09/28 11:52:11;;;;;;;8.45;2.10;;;19.80;57.70;;;;;;5054776;28;20426;-37
2021/09/28 11:54:42;;;;;;;10.38;2.95;;;19.70;56.90;;;;;;5054600;28;20037;-37
2021/09/28 11:57:08;;;;;;;14.00;2.40;;;19.60;59.30;;;;;;5054291;28;20033;-37
2021/09/28 11:59:35;;;;;;;12.45;1.98;;;19.50;59.70;;;;;;5054395;28;20017;-37
2021/09/28 12:02:01;;;;;;;10.57;2.70;;;19.40;58.60;;;;;;5053805;28;20059;-37
2021/09/28 12:07:00;;;;;;;11.15;1.95;;;19.90;56.70;;;;;;5054561;28;20021;-37
2021/09/28 12:09:47;;;;;;;9.02;2.05;;;19.40;57.50;;;;;;5054290;28;20443;-38
2021/09/28 12:12:16;;;;;;;12.82;2.42;;;19.50;57.10;;;;;;5053405;28;20420;-36
2021/09/28 12:14:47;;;;;;;9.75;2.17;;;18.80;57.80;;;;;;5054332;28;20029;-38
2021/09/28 12:17:17;;;;;;;13.93;2.17;;;19.20;56.10;;;;;;5052800;28;20027;-38
2021/09/28 12:19:47;;;;;;;18.70;2.45;;;19.50;55.30;;;;;;5055192;28;20540;-38
2021/09/28 12:22:25;;;;;;;6.45;1.80;;;19.20;57.50;;;;;;5052723;28;20025;-38
2021/09/28 12:24:54;;;;;;;8.48;3.60;;;18.90;58.10;;;;;;5054300;28;20372;-38
2021/09/28 12:27:25;;;;;;;7.03;2.05;;;19.00;56.90;;;;;;5054308;28;20425;-37
2021/09/28 12:29:54;;;;;;;12.00;2.47;;;19.10;56.90;;;;;;5053651;28;20313;-38
2021/09/28 12:32:23;;;;;;;10.18;3.50;;;18.90;58.30;;;;;;5053812;28;20037;-37
2021/09/28 12:34:50;;;;;;;8.82;2.08;;;19.40;57.20;;;;;;5054320;28;20055;-38
2021/09/28 12:37:16;;;;;;;9.57;2.03;;;19.50;56.30;;;;;;5052315;28;20025;-39
2021/09/28 12:39:57;;;;;;;14.55;2.35;;;19.90;54.70;;;;;;5054563;28;20036;-38
2021/09/28 12:42:23;;;;;;;10.07;2.60;;;20.10;54.00;;;;;;5054255;28;20021;-38
2021/09/28 12:44:56;;;;;;;5.50;1.42;;;19.40;55.40;;;;;;5052794;28;20526;-38
2021/09/28 12:47:30;;;;;;;10.73;2.10;;;19.30;56.00;;;;;;5052673;28;20032;-38
2021/09/28 12:49:57;;;;;;;8.23;1.98;;;18.80;56.80;;;;;;5054362;28;20029;-43